KPSC/PSC METAR and TAF weather

Enter ICAO airport designator
Station Type Date Time Source
KPSC METAR 2020/03/29 20:53 UTC NOAA

KPSC 292053Z 22021G31KT 10SM CLR 18/01 A2987 RMK AO2 PK WND 24031/2014 SLP115 T01830011 58014


Station Type Date Time Source
KPSC Decoded METAR 2020/03/29 20:53 UTC NOAA

TRI-CITIES AIRPORT, WA, United States (KPSC) 46-16N 119-07W 121M
Mar 29, 2020 - 04:53 PM EDT / 2020.03.29 2053 UTC
Wind: from the SW (220 degrees) at 24 MPH (21 KT) gusting to 36 MPH (31 KT):0
Visibility: 10 mile(s):0
Sky conditions: clear
Temperature: 64.9 F (18.3 C)
Dew Point: 34.0 F (1.1 C)
Relative Humidity: 31%
Pressure (altimeter): 29.87 in. Hg (1011 hPa)
Pressure tendency: 0.04 inches (1.4 hPa) lower than three hours ago
ob: KPSC 292053Z 22021G31KT 10SM CLR 18/01 A2987 RMK AO2 PK WND 24031/2014 SLP115 T01830011 58014
cycle: 21

Station Type Date Time Source
KPSC TAF 2020/03/29 20:51 UTC NOAA

TAF
AMD KPSC 291947Z 2920/3018 24016G24KT P6SM VCSH SCT070
FM300300 20010KT P6SM SCT070 BKN150
FM301200 22010KT P6SM -RA BKN070
FM301700 22017G27KT P6SM SCT040 BKN050

Example: see airport list